Miles, IA

7:29 AM CDT on September 27, 2016 (GMT -0500)
Tri-Township | | Change Station
Active Advisory: Flood Warning, Flood Watch

Elev 617 ft 42.05 °N, 90.11 °W | Updated 19 minutes ago

Clear
Clear
50 °F
Feels Like 50 °F
N
8
Wind Variable Wind from West

Today
High -- | Low -- °F
--% Chance of Precip.
Yesterday
High -- | Low -- °F
Precip. -- in
Pressure 29.89 in
Visibility 10.0 miles
Clouds Clear
Dew Point 42 °F
Humidity 74%
Rainfall 0.00 in
Snow Depth Not available.
6:54 AM 6:48 PM
Waning Crescent, 12% visible
METAR KSFY 271210Z AUTO 26007KT 10SM CLR 10/05 A2989 RMK AO2 T00980054
Pressure 29.89 in
Visibility 10.0 miles
Clouds Clear
Dew Point 42 °F
Humidity 74%
Rainfall 0.00 in
Snow Depth Not available.
6:54 AM 6:48 PM
Waning Crescent, 12% visible
METAR KSFY 271210Z AUTO 26007KT 10SM CLR 10/05 A2989 RMK AO2 T00980054

10-Day Weather Forecast

Almanac

Astronomy

Sep. 27, 2016 Rise Set
Actual Time
Civil Twilight
Nautical Twilight
Astronomical Twilight
Moon
Length of Visible Light
Length of Day
Tomorrow will be .
, % of the Moon is Illuminated

Today's Extremes

State Highs State Lows

Community

WunderPhotos

Upload Photos

1,942,069 photos uploaded!

WunderBlog® & News

Nearby

Air Quality

  Air Quality AQ Index Pollutant
Not available.

Snow Depth

Station Depth Elevation

Earthquake Activity

City Distance Mag. Time & Date
Minimum magnitude displayed is 2.5.

Coastal Water Temperatures

Place Temperature

Stations

Nearby Weather Stations

Station Location Temp. Windchill Dew Point Humidity Wind Precip. Elev Updated Type
                   

Watches & Warnings

Flood Warning
Issued: 3:44 AM CDT Sep. 27, 2016 – National Weather Service

... Flood Warning remains in effect until Monday morning...

The Flood Warning continues for
the Mississippi River at Dubuque.
* Until Monday morning.
* At 2:30 am Tuesday the stage was 17.0 feet... and rising.
* Flood stage is 17.0 feet.
* Minor flooding is occurring and moderate flooding is forecast.
* Forecast... rise above flood stage this morning... and continue
rising to 18.1 feet Friday morning. Fall below flood stage Monday
morning.
* Impact... at 18.0 feet... water overtops the East Dubuque flats
levee.


Lat... Lon 4254 9060 4253 9068 4247 9068 4228 9046
      4235 9039




Flood Watch
Issued: 3:50 AM CDT Sep. 27, 2016 – National Weather Service

The Flood Watch continues for
the Mississippi River at Bellevue ld12
* until further notice.
* At 12:00 am Tuesday the stage was 15.6 feet.
* Flood stage is 17.0 feet.
* Minor flooding is possible.
* Forecast... rise to around 16.3 feet early Friday morning.
* This is based on routed water from upstream, consequently there
is limited confidence in the river reaching flood stage. Forecasts
may change so monitor for updated information.


Lat... Lon 4211 9012 4235 9039 4228 9046 4220 9041
      4208 9019